sensor_id;sensor_type;location;lat;lon;timestamp;P1;durP1;ratioP1;P2;durP2;ratioP2
28774;SDS011;15926;51.348;6.596;2022-12-10T05:05:17;60.13;;;18.50;;
28774;SDS011;15926;51.348;6.596;2022-12-10T05:07:43;56.28;;;19.08;;
28774;SDS011;15926;51.348;6.596;2022-12-10T05:10:09;55.63;;;18.80;;
28774;SDS011;15926;51.348;6.596;2022-12-10T05:12:35;60.80;;;20.23;;
28774;SDS011;15926;51.348;6.596;2022-12-10T05:15:01;54.13;;;19.58;;
28774;SDS011;15926;51.348;6.596;2022-12-10T05:17:27;52.78;;;18.85;;
28774;SDS011;15926;51.348;6.596;2022-12-10T05:19:52;66.57;;;20.23;;
28774;SDS011;15926;51.348;6.596;2022-12-10T05:22:20;56.20;;;19.15;;
28774;SDS011;15926;51.348;6.596;2022-12-10T05:25:04;53.35;;;18.92;;
28774;SDS011;15926;51.348;6.596;2022-12-10T05:27:31;55.30;;;19.55;;
28774;SDS011;15926;51.348;6.596;2022-12-10T05:29:57;58.17;;;18.40;;
28774;SDS011;15926;51.348;6.596;2022-12-10T05:32:23;48.35;;;18.38;;
28774;SDS011;15926;51.348;6.596;2022-12-10T05:34:49;52.35;;;18.35;;
28774;SDS011;15926;51.348;6.596;2022-12-10T05:37:15;60.58;;;17.67;;
28774;SDS011;15926;51.348;6.596;2022-12-10T05:39:41;53.85;;;19.58;;
28774;SDS011;15926;51.348;6.596;2022-12-10T05:42:07;48.70;;;18.70;;
28774;SDS011;15926;51.348;6.596;2022-12-10T05:44:33;50.85;;;19.13;;
28774;SDS011;15926;51.348;6.596;2022-12-10T05:46:59;50.25;;;18.25;;
28774;SDS011;15926;51.348;6.596;2022-12-10T05:49:25;52.60;;;18.25;;
28774;SDS011;15926;51.348;6.596;2022-12-10T05:51:51;48.00;;;18.00;;
28774;SDS011;15926;51.348;6.596;2022-12-10T05:54:20;52.25;;;17.45;;
28774;SDS011;15926;51.348;6.596;2022-12-10T05:56:46;50.63;;;18.02;;
28774;SDS011;15926;51.348;6.596;2022-12-10T05:59:12;50.63;;;18.13;;
28774;SDS011;15926;51.348;6.596;2022-12-10T06:01:38;53.47;;;17.63;;
28774;SDS011;15926;51.348;6.596;2022-12-10T06:04:04;53.35;;;19.27;;
28774;SDS011;15926;51.348;6.596;2022-12-10T06:06:32;41.60;;;16.63;;
28774;SDS011;15926;51.348;6.596;2022-12-10T06:08:59;44.60;;;16.45;;
28774;SDS011;15926;51.348;6.596;2022-12-10T06:11:25;48.50;;;16.65;;
28774;SDS011;15926;51.348;6.596;2022-12-10T06:13:51;48.92;;;16.50;;
28774;SDS011;15926;51.348;6.596;2022-12-10T06:16:17;52.40;;;18.02;;
28774;SDS011;15926;51.348;6.596;2022-12-10T06:18:43;52.92;;;18.55;;
28774;SDS011;15926;51.348;6.596;2022-12-10T06:21:11;45.97;;;17.55;;
28774;SDS011;15926;51.348;6.596;2022-12-10T06:23:37;46.67;;;16.83;;
28774;SDS011;15926;51.348;6.596;2022-12-10T06:26:04;45.00;;;18.10;;
28774;SDS011;15926;51.348;6.596;2022-12-10T06:28:30;54.35;;;19.67;;
28774;SDS011;15926;51.348;6.596;2022-12-10T06:30:57;72.57;;;24.45;;
28774;SDS011;15926;51.348;6.596;2022-12-10T06:33:24;64.10;;;23.85;;
28774;SDS011;15926;51.348;6.596;2022-12-10T06:35:50;66.22;;;22.27;;
28774;SDS011;15926;51.348;6.596;2022-12-10T06:38:16;66.10;;;21.75;;
28774;SDS011;15926;51.348;6.596;2022-12-10T06:40:42;80.20;;;24.95;;
28774;SDS011;15926;51.348;6.596;2022-12-10T06:43:08;77.20;;;26.58;;
28774;SDS011;15926;51.348;6.596;2022-12-10T06:45:37;66.00;;;24.15;;
28774;SDS011;15926;51.348;6.596;2022-12-10T06:48:03;76.32;;;25.55;;
28774;SDS011;15926;51.348;6.596;2022-12-10T06:50:29;78.65;;;24.60;;
28774;SDS011;15926;51.348;6.596;2022-12-10T06:52:55;82.15;;;27.55;;
28774;SDS011;15926;51.348;6.596;2022-12-10T06:55:21;74.07;;;24.65;;
28774;SDS011;15926;51.348;6.596;2022-12-10T06:57:50;81.07;;;27.83;;
28774;SDS011;15926;51.348;6.596;2022-12-10T07:00:17;77.97;;;25.70;;
28774;SDS011;15926;51.348;6.596;2022-12-10T07:02:43;78.90;;;25.02;;
28774;SDS011;15926;51.348;6.596;2022-12-10T07:05:09;76.10;;;25.35;;
28774;SDS011;15926;51.348;6.596;2022-12-10T07:07:35;85.60;;;26.70;;
28774;SDS011;15926;51.348;6.596;2022-12-10T07:10:01;78.70;;;26.95;;
28774;SDS011;15926;51.348;6.596;2022-12-10T07:12:27;81.22;;;24.88;;
28774;SDS011;15926;51.348;6.596;2022-12-10T07:14:53;76.55;;;24.58;;
28774;SDS011;15926;51.348;6.596;2022-12-10T07:17:19;80.07;;;27.35;;
28774;SDS011;15926;51.348;6.596;2022-12-10T07:19:45;85.68;;;27.73;;
28774;SDS011;15926;51.348;6.596;2022-12-10T07:22:11;85.18;;;28.05;;
28774;SDS011;15926;51.348;6.596;2022-12-10T07:24:37;88.43;;;26.00;;
28774;SDS011;15926;51.348;6.596;2022-12-10T07:27:06;93.28;;;27.48;;
28774;SDS011;15926;51.348;6.596;2022-12-10T07:29:33;81.15;;;26.92;;
28774;SDS011;15926;51.348;6.596;2022-12-10T07:31:59;90.95;;;28.15;;
28774;SDS011;15926;51.348;6.596;2022-12-10T07:34:25;88.68;;;29.35;;
28774;SDS011;15926;51.348;6.596;2022-12-10T07:36:51;94.72;;;29.08;;
28774;SDS011;15926;51.348;6.596;2022-12-10T07:39:17;95.55;;;29.60;;
28774;SDS011;15926;51.348;6.596;2022-12-10T07:41:44;85.72;;;27.33;;
28774;SDS011;15926;51.348;6.596;2022-12-10T07:44:11;96.65;;;26.92;;
28774;SDS011;15926;51.348;6.596;2022-12-10T07:46:37;100.85;;;29.20;;
28774;SDS011;15926;51.348;6.596;2022-12-10T07:49:03;97.60;;;28.52;;
28774;SDS011;15926;51.348;6.596;2022-12-10T07:51:30;98.15;;;28.08;;
28774;SDS011;15926;51.348;6.596;2022-12-10T07:53:56;104.70;;;28.13;;
28774;SDS011;15926;51.348;6.596;2022-12-10T07:56:22;81.28;;;26.25;;
28774;SDS011;15926;51.348;6.596;2022-12-10T07:58:49;95.15;;;27.98;;
28774;SDS011;15926;51.348;6.596;2022-12-10T08:01:17;106.22;;;30.17;;
28774;SDS011;15926;51.348;6.596;2022-12-10T08:03:43;88.97;;;25.65;;
28774;SDS011;15926;51.348;6.596;2022-12-10T08:06:17;105.85;;;31.88;;
28774;SDS011;15926;51.348;6.596;2022-12-10T08:08:44;110.00;;;32.22;;
28774;SDS011;15926;51.348;6.596;2022-12-10T08:11:11;97.55;;;29.35;;
28774;SDS011;15926;51.348;6.596;2022-12-10T08:13:37;109.07;;;31.38;;
28774;SDS011;15926;51.348;6.596;2022-12-10T08:18:29;101.88;;;29.00;;
28774;SDS011;15926;51.348;6.596;2022-12-10T08:20:56;101.70;;;29.92;;
28774;SDS011;15926;51.348;6.596;2022-12-10T08:23:22;103.85;;;30.95;;
28774;SDS011;15926;51.348;6.596;2022-12-10T08:25:47;108.88;;;28.45;;
28774;SDS011;15926;51.348;6.596;2022-12-10T08:28:17;103.85;;;28.77;;
28774;SDS011;15926;51.348;6.596;2022-12-10T08:30:46;97.97;;;28.73;;
28774;SDS011;15926;51.348;6.596;2022-12-10T08:33:12;93.97;;;29.42;;
28774;SDS011;15926;51.348;6.596;2022-12-10T08:35:39;91.18;;;26.45;;
28774;SDS011;15926;51.348;6.596;2022-12-10T08:38:05;105.32;;;29.33;;
28774;SDS011;15926;51.348;6.596;2022-12-10T08:40:31;91.50;;;28.67;;
28774;SDS011;15926;51.348;6.596;2022-12-10T08:42:57;87.30;;;27.30;;
28774;SDS011;15926;51.348;6.596;2022-12-10T08:45:23;89.63;;;27.40;;
28774;SDS011;15926;51.348;6.596;2022-12-10T08:47:49;94.65;;;26.60;;
28774;SDS011;15926;51.348;6.596;2022-12-10T08:50:15;76.57;;;26.00;;
28774;SDS011;15926;51.348;6.596;2022-12-10T08:52:41;82.78;;;25.77;;
28774;SDS011;15926;51.348;6.596;2022-12-10T08:55:07;76.13;;;24.08;;
28774;SDS011;15926;51.348;6.596;2022-12-10T08:57:33;75.93;;;23.75;;
28774;SDS011;15926;51.348;6.596;2022-12-10T08:59:59;69.82;;;23.88;;
28774;SDS011;15926;51.348;6.596;2022-12-10T09:02:25;64.70;;;24.02;;
28774;SDS011;15926;51.348;6.596;2022-12-10T09:04:51;76.35;;;24.83;;
28774;SDS011;15926;51.348;6.596;2022-12-10T09:07:17;72.18;;;23.92;;
28774;SDS011;15926;51.348;6.596;2022-12-10T09:09:43;75.25;;;24.23;;
28774;SDS011;15926;51.348;6.596;2022-12-10T09:12:09;71.97;;;25.02;;
28774;SDS011;15926;51.348;6.596;2022-12-10T09:14:35;58.42;;;21.35;;
28774;SDS011;15926;51.348;6.596;2022-12-10T09:17:03;59.85;;;21.23;;
28774;SDS011;15926;51.348;6.596;2022-12-10T09:19:29;68.10;;;21.40;;
28774;SDS011;15926;51.348;6.596;2022-12-10T09:21:55;64.78;;;21.88;;
28774;SDS011;15926;51.348;6.596;2022-12-10T09:24:21;63.10;;;23.10;;
28774;SDS011;15926;51.348;6.596;2022-12-10T09:26:47;63.33;;;21.63;;
28774;SDS011;15926;51.348;6.596;2022-12-10T09:29:13;62.83;;;22.73;;
28774;SDS011;15926;51.348;6.596;2022-12-10T09:31:39;68.80;;;22.10;;
28774;SDS011;15926;51.348;6.596;2022-12-10T09:34:05;64.55;;;22.40;;
28774;SDS011;15926;51.348;6.596;2022-12-10T09:36:31;62.83;;;21.85;;
28774;SDS011;15926;51.348;6.596;2022-12-10T09:38:57;59.65;;;22.15;;
28774;SDS011;15926;51.348;6.596;2022-12-10T09:41:39;55.40;;;20.80;;
28774;SDS011;15926;51.348;6.596;2022-12-10T09:44:13;55.42;;;20.70;;
28774;SDS011;15926;51.348;6.596;2022-12-10T09:46:53;62.25;;;20.52;;
28774;SDS011;15926;51.348;6.596;2022-12-10T09:51:45;49.03;;;20.63;;
28774;SDS011;15926;51.348;6.596;2022-12-10T09:54:15;60.03;;;22.48;;
28774;SDS011;15926;51.348;6.596;2022-12-10T09:56:44;65.05;;;23.98;;
28774;SDS011;15926;51.348;6.596;2022-12-10T09:59:15;53.13;;;21.40;;
28774;SDS011;15926;51.348;6.596;2022-12-10T10:01:42;56.97;;;21.88;;
28774;SDS011;15926;51.348;6.596;2022-12-10T10:04:09;53.60;;;20.75;;
28774;SDS011;15926;51.348;6.596;2022-12-10T10:06:35;54.17;;;21.70;;
28774;SDS011;15926;51.348;6.596;2022-12-10T10:09:01;55.15;;;21.85;;
28774;SDS011;15926;51.348;6.596;2022-12-10T10:11:29;43.20;;;18.95;;
28774;SDS011;15926;51.348;6.596;2022-12-10T10:13:58;53.67;;;20.33;;
28774;SDS011;15926;51.348;6.596;2022-12-10T10:19:14;55.10;;;18.77;;
28774;SDS011;15926;51.348;6.596;2022-12-10T10:21:47;47.83;;;19.13;;
28774;SDS011;15926;51.348;6.596;2022-12-10T10:24:15;45.85;;;18.50;;
28774;SDS011;15926;51.348;6.596;2022-12-10T10:26:43;51.35;;;20.65;;
28774;SDS011;15926;51.348;6.596;2022-12-10T10:29:11;44.78;;;17.77;;
28774;SDS011;15926;51.348;6.596;2022-12-10T10:31:38;47.97;;;18.55;;
28774;SDS011;15926;51.348;6.596;2022-12-10T10:34:06;50.67;;;19.92;;
28774;SDS011;15926;51.348;6.596;2022-12-10T10:36:37;40.00;;;18.50;;
28774;SDS011;15926;51.348;6.596;2022-12-10T10:41:41;53.42;;;19.85;;
28774;SDS011;15926;51.348;6.596;2022-12-10T10:44:15;73.55;;;28.65;;
28774;SDS011;15926;51.348;6.596;2022-12-10T10:46:42;67.18;;;24.30;;
28774;SDS011;15926;51.348;6.596;2022-12-10T10:49:19;57.05;;;22.38;;
28774;SDS011;15926;51.348;6.596;2022-12-10T10:51:47;58.80;;;21.90;;
28774;SDS011;15926;51.348;6.596;2022-12-10T10:54:37;56.30;;;22.25;;
28774;SDS011;15926;51.348;6.596;2022-12-10T10:59:44;48.45;;;20.17;;
28774;SDS011;15926;51.348;6.596;2022-12-10T11:07:12;52.72;;;19.58;;
28774;SDS011;15926;51.348;6.596;2022-12-10T11:09:41;66.47;;;21.25;;
28774;SDS011;15926;51.348;6.596;2022-12-10T11:12:26;55.22;;;20.83;;
28774;SDS011;15926;51.348;6.596;2022-12-10T11:14:53;63.38;;;22.40;;
28774;SDS011;15926;51.348;6.596;2022-12-10T11:17:21;60.03;;;20.65;;
28774;SDS011;15926;51.348;6.596;2022-12-10T11:20:01;52.35;;;19.98;;
28774;SDS011;15926;51.348;6.596;2022-12-10T11:22:30;54.42;;;19.45;;
28774;SDS011;15926;51.348;6.596;2022-12-10T11:24:57;54.67;;;21.02;;
28774;SDS011;15926;51.348;6.596;2022-12-10T11:27:36;56.45;;;21.38;;
28774;SDS011;15926;51.348;6.596;2022-12-10T11:39:56;51.50;;;18.83;;
28774;SDS011;15926;51.348;6.596;2022-12-10T11:55:30;53.60;;;18.25;;
28774;SDS011;15926;51.348;6.596;2022-12-10T12:00:42;49.45;;;17.15;;
28774;SDS011;15926;51.348;6.596;2022-12-10T12:05:49;47.60;;;18.35;;
28774;SDS011;15926;51.348;6.596;2022-12-10T12:13:50;50.10;;;18.90;;
28774;SDS011;15926;51.348;6.596;2022-12-10T12:16:24;50.55;;;18.58;;
28774;SDS011;15926;51.348;6.596;2022-12-10T12:19:02;48.83;;;18.75;;
28774;SDS011;15926;51.348;6.596;2022-12-10T12:21:30;50.30;;;17.77;;
28774;SDS011;15926;51.348;6.596;2022-12-10T12:24:00;50.28;;;19.45;;
28774;SDS011;15926;51.348;6.596;2022-12-10T12:26:28;49.92;;;17.65;;
28774;SDS011;15926;51.348;6.596;2022-12-10T12:31:30;53.83;;;19.52;;
28774;SDS011;15926;51.348;6.596;2022-12-10T12:34:17;48.13;;;20.05;;
28774;SDS011;15926;51.348;6.596;2022-12-10T12:36:44;58.20;;;20.40;;
28774;SDS011;15926;51.348;6.596;2022-12-10T12:44:12;46.25;;;17.88;;
28774;SDS011;15926;51.348;6.596;2022-12-10T12:46:40;49.58;;;18.38;;
28774;SDS011;15926;51.348;6.596;2022-12-10T12:51:42;51.00;;;19.77;;
28774;SDS011;15926;51.348;6.596;2022-12-10T12:54:13;58.70;;;19.65;;
28774;SDS011;15926;51.348;6.596;2022-12-10T12:56:57;52.83;;;18.00;;
28774;SDS011;15926;51.348;6.596;2022-12-10T13:02:15;55.03;;;20.27;;
28774;SDS011;15926;51.348;6.596;2022-12-10T13:04:45;54.00;;;20.20;;
28774;SDS011;15926;51.348;6.596;2022-12-10T13:09:47;50.80;;;20.45;;
28774;SDS011;15926;51.348;6.596;2022-12-10T13:17:37;51.70;;;18.85;;
28774;SDS011;15926;51.348;6.596;2022-12-10T13:23:02;50.72;;;20.90;;
28774;SDS011;15926;51.348;6.596;2022-12-10T13:25:39;51.40;;;19.98;;
28774;SDS011;15926;51.348;6.596;2022-12-10T13:34:20;51.90;;;21.02;;
28774;SDS011;15926;51.348;6.596;2022-12-10T13:37:02;53.95;;;20.80;;
28774;SDS011;15926;51.348;6.596;2022-12-10T13:47:27;59.67;;;22.50;;
28774;SDS011;15926;51.348;6.596;2022-12-10T13:49:57;53.15;;;20.45;;
28774;SDS011;15926;51.348;6.596;2022-12-10T13:52:30;59.60;;;22.83;;
28774;SDS011;15926;51.348;6.596;2022-12-10T13:57:29;63.83;;;20.70;;
28774;SDS011;15926;51.348;6.596;2022-12-10T14:02:50;54.85;;;22.75;;
28774;SDS011;15926;51.348;6.596;2022-12-10T14:08:04;80.47;;;32.00;;
28774;SDS011;15926;51.348;6.596;2022-12-10T14:10:31;74.18;;;28.90;;
28774;SDS011;15926;51.348;6.596;2022-12-10T14:12:59;71.78;;;26.25;;
28774;SDS011;15926;51.348;6.596;2022-12-10T14:15:25;76.10;;;28.83;;
28774;SDS011;15926;51.348;6.596;2022-12-10T14:18:11;73.90;;;27.35;;
28774;SDS011;15926;51.348;6.596;2022-12-10T14:20:39;91.25;;;35.92;;
28774;SDS011;15926;51.348;6.596;2022-12-10T14:23:19;76.20;;;30.67;;
28774;SDS011;15926;51.348;6.596;2022-12-10T14:26:20;74.72;;;28.23;;
28774;SDS011;15926;51.348;6.596;2022-12-10T14:28:46;58.42;;;22.98;;
28774;SDS011;15926;51.348;6.596;2022-12-10T14:31:20;65.43;;;23.05;;
28774;SDS011;15926;51.348;6.596;2022-12-10T14:33:48;79.30;;;28.08;;
28774;SDS011;15926;51.348;6.596;2022-12-10T14:36:22;80.88;;;26.48;;
28774;SDS011;15926;51.348;6.596;2022-12-10T14:38:50;71.63;;;26.92;;
28774;SDS011;15926;51.348;6.596;2022-12-10T14:41:17;65.30;;;23.20;;
28774;SDS011;15926;51.348;6.596;2022-12-10T14:43:44;61.80;;;20.60;;
28774;SDS011;15926;51.348;6.596;2022-12-10T14:46:16;71.00;;;23.20;;
28774;SDS011;15926;51.348;6.596;2022-12-10T14:48:42;56.55;;;21.70;;
28774;SDS011;15926;51.348;6.596;2022-12-10T14:51:13;73.07;;;22.88;;
28774;SDS011;15926;51.348;6.596;2022-12-10T14:53:40;72.47;;;22.73;;
28774;SDS011;15926;51.348;6.596;2022-12-10T14:56:06;58.58;;;20.95;;
28774;SDS011;15926;51.348;6.596;2022-12-10T14:58:36;68.38;;;20.70;;
28774;SDS011;15926;51.348;6.596;2022-12-10T15:01:03;66.38;;;21.50;;
28774;SDS011;15926;51.348;6.596;2022-12-10T15:03:31;59.90;;;21.35;;
28774;SDS011;15926;51.348;6.596;2022-12-10T15:06:01;69.03;;;23.17;;
28774;SDS011;15926;51.348;6.596;2022-12-10T15:08:28;71.47;;;26.38;;
28774;SDS011;15926;51.348;6.596;2022-12-10T15:10:55;63.33;;;21.02;;
28774;SDS011;15926;51.348;6.596;2022-12-10T15:13:23;60.58;;;21.65;;
28774;SDS011;15926;51.348;6.596;2022-12-10T15:15:50;62.33;;;19.52;;
28774;SDS011;15926;51.348;6.596;2022-12-10T15:18:25;63.53;;;21.13;;
28774;SDS011;15926;51.348;6.596;2022-12-10T15:20:53;61.97;;;21.88;;
28774;SDS011;15926;51.348;6.596;2022-12-10T15:28:40;74.25;;;23.95;;
28774;SDS011;15926;51.348;6.596;2022-12-10T15:34:10;62.50;;;22.45;;
28774;SDS011;15926;51.348;6.596;2022-12-10T15:36:31;74.55;;;26.38;;
28774;SDS011;15926;51.348;6.596;2022-12-10T15:39:04;69.38;;;23.98;;
28774;SDS011;15926;51.348;6.596;2022-12-10T15:41:33;64.88;;;22.88;;
28774;SDS011;15926;51.348;6.596;2022-12-10T15:44:04;61.70;;;21.02;;
28774;SDS011;15926;51.348;6.596;2022-12-10T15:46:30;62.13;;;21.23;;
28774;SDS011;15926;51.348;6.596;2022-12-10T15:48:56;64.70;;;22.42;;
28774;SDS011;15926;51.348;6.596;2022-12-10T15:51:22;72.25;;;23.73;;
28774;SDS011;15926;51.348;6.596;2022-12-10T15:53:48;71.22;;;22.45;;
28774;SDS011;15926;51.348;6.596;2022-12-10T15:56:14;64.88;;;22.35;;
28774;SDS011;15926;51.348;6.596;2022-12-10T15:58:40;71.53;;;22.33;;
28774;SDS011;15926;51.348;6.596;2022-12-10T16:01:08;60.38;;;21.17;;
28774;SDS011;15926;51.348;6.596;2022-12-10T16:03:34;67.22;;;22.90;;
28774;SDS011;15926;51.348;6.596;2022-12-10T16:06:01;72.20;;;23.63;;
28774;SDS011;15926;51.348;6.596;2022-12-10T16:08:28;69.50;;;23.55;;
28774;SDS011;15926;51.348;6.596;2022-12-10T16:10:55;67.35;;;23.40;;
28774;SDS011;15926;51.348;6.596;2022-12-10T16:13:23;71.78;;;23.75;;
28774;SDS011;15926;51.348;6.596;2022-12-10T16:18:16;70.03;;;23.23;;
28774;SDS011;15926;51.348;6.596;2022-12-10T16:20:42;63.15;;;23.10;;
28774;SDS011;15926;51.348;6.596;2022-12-10T16:23:08;75.75;;;23.08;;
28774;SDS011;15926;51.348;6.596;2022-12-10T16:25:34;62.10;;;21.83;;
28774;SDS011;15926;51.348;6.596;2022-12-10T16:28:01;63.53;;;23.33;;
28774;SDS011;15926;51.348;6.596;2022-12-10T16:32:57;68.00;;;22.05;;
28774;SDS011;15926;51.348;6.596;2022-12-10T16:35:23;64.22;;;23.20;;
28774;SDS011;15926;51.348;6.596;2022-12-10T16:37:49;70.70;;;22.27;;
28774;SDS011;15926;51.348;6.596;2022-12-10T16:40:19;75.38;;;23.55;;
28774;SDS011;15926;51.348;6.596;2022-12-10T16:42:45;65.78;;;22.05;;
28774;SDS011;15926;51.348;6.596;2022-12-10T16:45:17;60.75;;;22.15;;
28774;SDS011;15926;51.348;6.596;2022-12-10T16:47:44;64.40;;;24.25;;
28774;SDS011;15926;51.348;6.596;2022-12-10T16:50:10;67.63;;;23.75;;
28774;SDS011;15926;51.348;6.596;2022-12-10T16:52:36;71.07;;;24.73;;
28774;SDS011;15926;51.348;6.596;2022-12-10T16:55:02;63.90;;;22.30;;
28774;SDS011;15926;51.348;6.596;2022-12-10T16:57:28;67.20;;;23.85;;
28774;SDS011;15926;51.348;6.596;2022-12-10T16:59:55;63.53;;;22.45;;
28774;SDS011;15926;51.348;6.596;2022-12-10T17:02:21;71.68;;;24.08;;
28774;SDS011;15926;51.348;6.596;2022-12-10T17:04:47;71.75;;;25.13;;
28774;SDS011;15926;51.348;6.596;2022-12-10T17:07:13;72.25;;;24.75;;
28774;SDS011;15926;51.348;6.596;2022-12-10T17:09:40;59.35;;;22.25;;
28774;SDS011;15926;51.348;6.596;2022-12-10T17:12:07;72.10;;;22.80;;
28774;SDS011;15926;51.348;6.596;2022-12-10T17:14:36;72.30;;;23.00;;
28774;SDS011;15926;51.348;6.596;2022-12-10T17:17:03;71.75;;;23.45;;
28774;SDS011;15926;51.348;6.596;2022-12-10T17:19:33;75.65;;;24.52;;
28774;SDS011;15926;51.348;6.596;2022-12-10T17:21:59;72.43;;;24.80;;
28774;SDS011;15926;51.348;6.596;2022-12-10T17:24:25;70.93;;;23.98;;
28774;SDS011;15926;51.348;6.596;2022-12-10T17:26:51;83.13;;;25.50;;
28774;SDS011;15926;51.348;6.596;2022-12-10T17:31:46;68.70;;;23.60;;
28774;SDS011;15926;51.348;6.596;2022-12-10T17:34:12;69.88;;;23.50;;
28774;SDS011;15926;51.348;6.596;2022-12-10T17:36:39;71.30;;;24.15;;
28774;SDS011;15926;51.348;6.596;2022-12-10T17:39:05;69.07;;;23.90;;
28774;SDS011;15926;51.348;6.596;2022-12-10T17:41:31;68.63;;;23.63;;
28774;SDS011;15926;51.348;6.596;2022-12-10T17:43:58;69.05;;;23.52;;
28774;SDS011;15926;51.348;6.596;2022-12-10T17:46:24;69.13;;;22.92;;
28774;SDS011;15926;51.348;6.596;2022-12-10T17:48:51;75.45;;;24.52;;
28774;SDS011;15926;51.348;6.596;2022-12-10T17:51:17;71.03;;;22.95;;
28774;SDS011;15926;51.348;6.596;2022-12-10T17:53:44;82.97;;;25.40;;
28774;SDS011;15926;51.348;6.596;2022-12-10T17:56:14;80.18;;;23.88;;
28774;SDS011;15926;51.348;6.596;2022-12-10T17:58:40;82.72;;;27.75;;
28774;SDS011;15926;51.348;6.596;2022-12-10T18:01:07;78.32;;;25.55;;
28774;SDS011;15926;51.348;6.596;2022-12-10T18:03:34;78.35;;;24.45;;
28774;SDS011;15926;51.348;6.596;2022-12-10T18:06:00;78.95;;;24.05;;
28774;SDS011;15926;51.348;6.596;2022-12-10T18:08:26;87.22;;;25.35;;
28774;SDS011;15926;51.348;6.596;2022-12-10T18:10:52;81.45;;;22.33;;
28774;SDS011;15926;51.348;6.596;2022-12-10T18:13:19;76.80;;;23.02;;
28774;SDS011;15926;51.348;6.596;2022-12-10T18:15:46;82.15;;;21.77;;
28774;SDS011;15926;51.348;6.596;2022-12-10T18:18:12;86.35;;;24.45;;
28774;SDS011;15926;51.348;6.596;2022-12-10T18:20:38;73.20;;;22.35;;
28774;SDS011;15926;51.348;6.596;2022-12-10T18:23:06;77.60;;;23.08;;
28774;SDS011;15926;51.348;6.596;2022-12-10T18:25:32;75.35;;;23.88;;
28774;SDS011;15926;51.348;6.596;2022-12-10T18:28:01;72.82;;;21.52;;
28774;SDS011;15926;51.348;6.596;2022-12-10T18:30:28;77.15;;;20.83;;
28774;SDS011;15926;51.348;6.596;2022-12-10T18:32:55;79.25;;;23.17;;
28774;SDS011;15926;51.348;6.596;2022-12-10T18:35:22;83.90;;;25.30;;
28774;SDS011;15926;51.348;6.596;2022-12-10T18:37:48;86.45;;;24.25;;
28774;SDS011;15926;51.348;6.596;2022-12-10T18:40:15;74.93;;;22.95;;
28774;SDS011;15926;51.348;6.596;2022-12-10T18:42:41;72.75;;;21.30;;
28774;SDS011;15926;51.348;6.596;2022-12-10T18:45:08;75.18;;;20.73;;
28774;SDS011;15926;51.348;6.596;2022-12-10T18:47:34;72.03;;;21.25;;
28774;SDS011;15926;51.348;6.596;2022-12-10T18:50:00;65.50;;;19.60;;
28774;SDS011;15926;51.348;6.596;2022-12-10T18:52:26;70.72;;;19.30;;
28774;SDS011;15926;51.348;6.596;2022-12-10T18:54:52;80.82;;;22.88;;
28774;SDS011;15926;51.348;6.596;2022-12-10T18:57:18;69.20;;;19.60;;
28774;SDS011;15926;51.348;6.596;2022-12-10T18:59:44;72.90;;;20.80;;
28774;SDS011;15926;51.348;6.596;2022-12-10T19:02:10;82.50;;;23.13;;
28774;SDS011;15926;51.348;6.596;2022-12-10T19:04:36;76.53;;;21.17;;
28774;SDS011;15926;51.348;6.596;2022-12-10T19:07:02;82.03;;;24.30;;
28774;SDS011;15926;51.348;6.596;2022-12-10T19:09:28;85.72;;;23.30;;
28774;SDS011;15926;51.348;6.596;2022-12-10T19:11:56;89.10;;;24.08;;
28774;SDS011;15926;51.348;6.596;2022-12-10T19:14:22;87.65;;;23.73;;
28774;SDS011;15926;51.348;6.596;2022-12-10T19:16:49;89.60;;;23.20;;
28774;SDS011;15926;51.348;6.596;2022-12-10T19:19:16;95.72;;;26.65;;
28774;SDS011;15926;51.348;6.596;2022-12-10T19:21:43;96.03;;;29.10;;
28774;SDS011;15926;51.348;6.596;2022-12-10T19:24:09;88.90;;;25.85;;
28774;SDS011;15926;51.348;6.596;2022-12-10T19:26:36;79.47;;;23.58;;
28774;SDS011;15926;51.348;6.596;2022-12-10T19:29:05;76.45;;;24.30;;
28774;SDS011;15926;51.348;6.596;2022-12-10T19:31:34;89.82;;;24.48;;
28774;SDS011;15926;51.348;6.596;2022-12-10T19:34:00;85.53;;;23.38;;
28774;SDS011;15926;51.348;6.596;2022-12-10T19:36:27;93.57;;;22.35;;
28774;SDS011;15926;51.348;6.596;2022-12-10T19:38:57;97.97;;;25.88;;
28774;SDS011;15926;51.348;6.596;2022-12-10T19:41:23;93.10;;;26.38;;
28774;SDS011;15926;51.348;6.596;2022-12-10T19:43:49;89.32;;;27.35;;
28774;SDS011;15926;51.348;6.596;2022-12-10T19:48:41;90.35;;;24.48;;
28774;SDS011;15926;51.348;6.596;2022-12-10T19:51:08;88.47;;;24.10;;
28774;SDS011;15926;51.348;6.596;2022-12-10T19:53:34;82.20;;;22.67;;
28774;SDS011;15926;51.348;6.596;2022-12-10T19:56:01;82.55;;;23.02;;
28774;SDS011;15926;51.348;6.596;2022-12-10T19:58:27;78.80;;;21.88;;
28774;SDS011;15926;51.348;6.596;2022-12-10T20:00:53;88.75;;;22.35;;
28774;SDS011;15926;51.348;6.596;2022-12-10T20:03:19;85.72;;;21.23;;
28774;SDS011;15926;51.348;6.596;2022-12-10T20:05:45;70.88;;;19.10;;
28774;SDS011;15926;51.348;6.596;2022-12-10T20:08:11;76.22;;;23.60;;
28774;SDS011;15926;51.348;6.596;2022-12-10T20:10:37;77.35;;;22.35;;
28774;SDS011;15926;51.348;6.596;2022-12-10T20:13:03;83.10;;;22.83;;
28774;SDS011;15926;51.348;6.596;2022-12-10T20:15:29;88.45;;;24.45;;
28774;SDS011;15926;51.348;6.596;2022-12-10T20:17:55;104.68;;;26.13;;
28774;SDS011;15926;51.348;6.596;2022-12-10T20:20:23;82.07;;;22.30;;
28774;SDS011;15926;51.348;6.596;2022-12-10T20:22:50;76.28;;;21.67;;
28774;SDS011;15926;51.348;6.596;2022-12-10T20:25:16;80.13;;;20.35;;
28774;SDS011;15926;51.348;6.596;2022-12-10T20:27:42;73.70;;;22.30;;
28774;SDS011;15926;51.348;6.596;2022-12-10T20:30:17;75.63;;;21.17;;
28774;SDS011;15926;51.348;6.596;2022-12-10T20:32:43;85.65;;;21.88;;
28774;SDS011;15926;51.348;6.596;2022-12-10T20:35:10;81.68;;;21.63;;
28774;SDS011;15926;51.348;6.596;2022-12-10T20:37:37;72.70;;;21.15;;
28774;SDS011;15926;51.348;6.596;2022-12-10T20:40:03;88.72;;;23.90;;
28774;SDS011;15926;51.348;6.596;2022-12-10T20:42:29;76.15;;;20.27;;
28774;SDS011;15926;51.348;6.596;2022-12-10T20:44:55;69.82;;;19.42;;
28774;SDS011;15926;51.348;6.596;2022-12-10T20:47:21;72.70;;;22.23;;
28774;SDS011;15926;51.348;6.596;2022-12-10T20:49:47;72.47;;;20.10;;
28774;SDS011;15926;51.348;6.596;2022-12-10T20:52:13;78.78;;;20.73;;
28774;SDS011;15926;51.348;6.596;2022-12-10T20:54:39;76.28;;;21.15;;
28774;SDS011;15926;51.348;6.596;2022-12-10T20:57:05;74.97;;;20.08;;
28774;SDS011;15926;51.348;6.596;2022-12-10T20:59:31;77.63;;;21.10;;
28774;SDS011;15926;51.348;6.596;2022-12-10T21:01:59;74.97;;;22.35;;
28774;SDS011;15926;51.348;6.596;2022-12-10T21:04:26;68.80;;;19.05;;
28774;SDS011;15926;51.348;6.596;2022-12-10T21:06:52;69.93;;;19.52;;
28774;SDS011;15926;51.348;6.596;2022-12-10T21:09:18;80.30;;;20.70;;
28774;SDS011;15926;51.348;6.596;2022-12-10T21:11:44;68.03;;;18.65;;
28774;SDS011;15926;51.348;6.596;2022-12-10T21:14:10;72.50;;;19.80;;
28774;SDS011;15926;51.348;6.596;2022-12-10T21:16:36;67.88;;;18.83;;
28774;SDS011;15926;51.348;6.596;2022-12-10T21:19:02;75.63;;;20.65;;
28774;SDS011;15926;51.348;6.596;2022-12-10T21:21:28;69.68;;;19.75;;
28774;SDS011;15926;51.348;6.596;2022-12-10T21:23:55;76.90;;;20.83;;